weather.gov     
National Weather Service

Terminal Aerodrome Forecast
NWS Homepage
This page is being discontinued on March 12, 2014.
The same data is available at this site. Please update your bookmarks.
Thank you, and we apologize for the inconvenience.
Please send an email to SR-SRH.Webmaster@noaa.gov with any concerns.


Current Version
Previous Version:    01  02  03  04  05  06  07  08  09  10  11  12  13  14  15  16  17  18  19  20  21  22  23  
[Printable]
439
FTUS41 KBOX 231738
TAFACK
TAF
KACK 231738Z 2318/2418 24018G25KT P6SM FEW100
     FM232200 23010G20KT P6SM SCT100
     FM240400 19007KT P6SM BKN200
     FM240800 15012G22KT P6SM BKN120
     FM241000 15017G34KT 3SM RA OVC030
     FM241200 15019G38KT 3SM +RA OVC008 WS020/17050KT
     FM241700 18021G41KT P6SM OVC010 WS020/21055KT=


439
FTUS41 KBOX 231738
TAFACK
TAF
KACK 231738Z 2318/2418 24018G25KT P6SM FEW100
     FM232200 23010G20KT P6SM SCT100
     FM240400 19007KT P6SM BKN200
     FM240800 15012G22KT P6SM BKN120
     FM241000 15017G34KT 3SM RA OVC030
     FM241200 15019G38KT 3SM +RA OVC008 WS020/17050KT
     FM241700 18021G41KT P6SM OVC010 WS020/21055KT=




U.S. Dept. of Commerce
NOAA National Weather Service
1325 East West Highway
Silver Spring, MD 20910
E-mail: w-nws.webmaster@noaa.gov
Page last modified: May 16, 2007
NATIONAL WEATHER SERVICE: for Safety, for Work, for Fun - FOR LIFE